sensor_id;sensor_type;location;lat;lon;timestamp;temperature;humidity
12520;DHT22;6325;49.540;8.364;2022-07-10T00:01:28;18.70;99.90
12520;DHT22;6325;49.540;8.364;2022-07-10T00:03:55;18.60;99.90
12520;DHT22;6325;49.540;8.364;2022-07-10T00:06:22;18.50;99.90
12520;DHT22;6325;49.540;8.364;2022-07-10T00:08:49;18.90;99.90
12520;DHT22;6325;49.540;8.364;2022-07-10T00:11:17;18.40;99.90
12520;DHT22;6325;49.540;8.364;2022-07-10T00:13:44;18.20;99.90
12520;DHT22;6325;49.540;8.364;2022-07-10T00:16:12;18.90;99.90
12520;DHT22;6325;49.540;8.364;2022-07-10T00:18:40;18.50;99.90
12520;DHT22;6325;49.540;8.364;2022-07-10T00:21:07;18.40;99.90
12520;DHT22;6325;49.540;8.364;2022-07-10T00:23:33;18.40;99.90
12520;DHT22;6325;49.540;8.364;2022-07-10T00:26:00;18.50;99.90
12520;DHT22;6325;49.540;8.364;2022-07-10T00:28:29;18.10;99.90
12520;DHT22;6325;49.540;8.364;2022-07-10T00:30:55;18.30;99.90
12520;DHT22;6325;49.540;8.364;2022-07-10T00:33:22;18.80;99.90
12520;DHT22;6325;49.540;8.364;2022-07-10T00:35:49;18.20;99.90
12520;DHT22;6325;49.540;8.364;2022-07-10T00:38:16;17.70;99.90
12520;DHT22;6325;49.540;8.364;2022-07-10T00:40:43;17.90;99.90
12520;DHT22;6325;49.540;8.364;2022-07-10T00:43:10;17.70;99.90
12520;DHT22;6325;49.540;8.364;2022-07-10T00:45:39;18.20;99.90
12520;DHT22;6325;49.540;8.364;2022-07-10T00:48:06;18.00;99.90
12520;DHT22;6325;49.540;8.364;2022-07-10T00:50:34;18.20;99.90
12520;DHT22;6325;49.540;8.364;2022-07-10T00:53:01;17.80;99.90
12520;DHT22;6325;49.540;8.364;2022-07-10T00:55:29;17.50;99.90
12520;DHT22;6325;49.540;8.364;2022-07-10T00:57:56;17.90;99.90
12520;DHT22;6325;49.540;8.364;2022-07-10T01:00:24;17.90;99.90
12520;DHT22;6325;49.540;8.364;2022-07-10T01:02:54;18.20;99.90
12520;DHT22;6325;49.540;8.364;2022-07-10T01:05:21;17.80;99.90
12520;DHT22;6325;49.540;8.364;2022-07-10T01:07:48;17.80;99.90
12520;DHT22;6325;49.540;8.364;2022-07-10T01:10:15;17.80;99.90
12520;DHT22;6325;49.540;8.364;2022-07-10T01:12:42;18.10;99.90
12520;DHT22;6325;49.540;8.364;2022-07-10T01:15:10;17.80;99.90
12520;DHT22;6325;49.540;8.364;2022-07-10T01:17:37;17.90;99.90
12520;DHT22;6325;49.540;8.364;2022-07-10T01:20:08;17.90;99.90
12520;DHT22;6325;49.540;8.364;2022-07-10T01:22:37;18.10;99.90
12520;DHT22;6325;49.540;8.364;2022-07-10T01:25:05;18.40;99.90
12520;DHT22;6325;49.540;8.364;2022-07-10T01:27:33;17.80;99.90
12520;DHT22;6325;49.540;8.364;2022-07-10T01:30:00;17.60;99.90
12520;DHT22;6325;49.540;8.364;2022-07-10T01:32:27;17.90;99.90
12520;DHT22;6325;49.540;8.364;2022-07-10T01:34:54;17.70;99.90
12520;DHT22;6325;49.540;8.364;2022-07-10T01:37:21;17.90;99.90
12520;DHT22;6325;49.540;8.364;2022-07-10T01:39:49;17.60;99.90
12520;DHT22;6325;49.540;8.364;2022-07-10T01:42:16;17.60;99.90
12520;DHT22;6325;49.540;8.364;2022-07-10T01:44:44;17.60;99.90
12520;DHT22;6325;49.540;8.364;2022-07-10T01:47:11;17.10;99.90
12520;DHT22;6325;49.540;8.364;2022-07-10T01:49:39;17.60;99.90
12520;DHT22;6325;49.540;8.364;2022-07-10T01:52:06;17.40;99.90
12520;DHT22;6325;49.540;8.364;2022-07-10T01:54:33;18.00;99.90
12520;DHT22;6325;49.540;8.364;2022-07-10T01:57:01;17.50;99.90
12520;DHT22;6325;49.540;8.364;2022-07-10T01:59:28;17.00;99.90
12520;DHT22;6325;49.540;8.364;2022-07-10T02:01:56;17.00;99.90
12520;DHT22;6325;49.540;8.364;2022-07-10T02:04:22;16.90;99.90
12520;DHT22;6325;49.540;8.364;2022-07-10T02:07:07;17.60;99.90
12520;DHT22;6325;49.540;8.364;2022-07-10T02:09:34;17.40;99.90
12520;DHT22;6325;49.540;8.364;2022-07-10T02:12:03;17.40;99.90
12520;DHT22;6325;49.540;8.364;2022-07-10T02:14:30;16.90;99.90
12520;DHT22;6325;49.540;8.364;2022-07-10T02:16:57;17.40;99.90
12520;DHT22;6325;49.540;8.364;2022-07-10T02:19:24;17.40;99.90
12520;DHT22;6325;49.540;8.364;2022-07-10T02:21:51;17.20;99.90
12520;DHT22;6325;49.540;8.364;2022-07-10T02:24:18;17.50;99.90
12520;DHT22;6325;49.540;8.364;2022-07-10T02:26:45;17.50;99.90
12520;DHT22;6325;49.540;8.364;2022-07-10T02:29:14;17.50;99.90
12520;DHT22;6325;49.540;8.364;2022-07-10T02:31:42;17.00;99.90
12520;DHT22;6325;49.540;8.364;2022-07-10T02:34:09;17.40;99.90
12520;DHT22;6325;49.540;8.364;2022-07-10T02:36:36;17.00;99.90
12520;DHT22;6325;49.540;8.364;2022-07-10T02:39:05;17.30;99.90
12520;DHT22;6325;49.540;8.364;2022-07-10T02:41:33;17.30;99.90
12520;DHT22;6325;49.540;8.364;2022-07-10T02:44:01;17.00;99.90
12520;DHT22;6325;49.540;8.364;2022-07-10T02:46:29;17.40;99.90
12520;DHT22;6325;49.540;8.364;2022-07-10T02:48:56;17.30;99.90
12520;DHT22;6325;49.540;8.364;2022-07-10T02:51:23;17.20;99.90
12520;DHT22;6325;49.540;8.364;2022-07-10T02:53:50;17.20;99.90
12520;DHT22;6325;49.540;8.364;2022-07-10T02:56:17;17.10;99.90
12520;DHT22;6325;49.540;8.364;2022-07-10T02:58:44;17.10;99.90
12520;DHT22;6325;49.540;8.364;2022-07-10T03:01:12;17.10;99.90
12520;DHT22;6325;49.540;8.364;2022-07-10T03:03:41;17.10;99.90
12520;DHT22;6325;49.540;8.364;2022-07-10T03:06:08;17.10;99.90
12520;DHT22;6325;49.540;8.364;2022-07-10T03:08:35;17.00;99.90
12520;DHT22;6325;49.540;8.364;2022-07-10T03:11:02;17.00;99.90
12520;DHT22;6325;49.540;8.364;2022-07-10T03:13:29;17.00;99.90
12520;DHT22;6325;49.540;8.364;2022-07-10T03:15:56;16.90;99.90
12520;DHT22;6325;49.540;8.364;2022-07-10T03:18:23;16.90;99.90
12520;DHT22;6325;49.540;8.364;2022-07-10T03:20:51;16.70;99.90
12520;DHT22;6325;49.540;8.364;2022-07-10T03:23:18;16.70;99.90
12520;DHT22;6325;49.540;8.364;2022-07-10T03:25:45;16.80;99.90
12520;DHT22;6325;49.540;8.364;2022-07-10T03:28:12;17.00;99.90
12520;DHT22;6325;49.540;8.364;2022-07-10T03:30:39;16.60;99.90
12520;DHT22;6325;49.540;8.364;2022-07-10T03:33:06;16.90;99.90
12520;DHT22;6325;49.540;8.364;2022-07-10T03:35:33;16.70;99.90
12520;DHT22;6325;49.540;8.364;2022-07-10T03:38:02;16.30;99.90
12520;DHT22;6325;49.540;8.364;2022-07-10T03:40:29;16.30;99.90
12520;DHT22;6325;49.540;8.364;2022-07-10T03:42:56;16.90;99.90
12520;DHT22;6325;49.540;8.364;2022-07-10T03:45:23;16.60;99.90
12520;DHT22;6325;49.540;8.364;2022-07-10T03:47:50;16.70;99.90
12520;DHT22;6325;49.540;8.364;2022-07-10T03:50:17;16.70;99.90
12520;DHT22;6325;49.540;8.364;2022-07-10T03:52:47;16.80;99.90
12520;DHT22;6325;49.540;8.364;2022-07-10T03:55:15;16.50;99.90
12520;DHT22;6325;49.540;8.364;2022-07-10T03:57:42;16.40;99.90
12520;DHT22;6325;49.540;8.364;2022-07-10T04:00:22;17.20;99.90
12520;DHT22;6325;49.540;8.364;2022-07-10T04:02:54;16.90;99.90
12520;DHT22;6325;49.540;8.364;2022-07-10T04:05:22;16.10;99.90
12520;DHT22;6325;49.540;8.364;2022-07-10T04:07:49;16.10;99.90
12520;DHT22;6325;49.540;8.364;2022-07-10T04:10:17;16.50;99.90
12520;DHT22;6325;49.540;8.364;2022-07-10T04:12:44;16.40;99.90
12520;DHT22;6325;49.540;8.364;2022-07-10T04:15:12;16.50;99.90
12520;DHT22;6325;49.540;8.364;2022-07-10T04:17:39;16.70;99.90
12520;DHT22;6325;49.540;8.364;2022-07-10T04:20:06;16.50;99.90
12520;DHT22;6325;49.540;8.364;2022-07-10T04:22:34;16.30;99.90
12520;DHT22;6325;49.540;8.364;2022-07-10T04:25:01;15.90;99.90
12520;DHT22;6325;49.540;8.364;2022-07-10T04:27:29;16.60;99.90
12520;DHT22;6325;49.540;8.364;2022-07-10T04:29:56;16.70;99.90
12520;DHT22;6325;49.540;8.364;2022-07-10T04:32:24;16.00;99.90
12520;DHT22;6325;49.540;8.364;2022-07-10T04:34:50;15.80;99.90
12520;DHT22;6325;49.540;8.364;2022-07-10T04:37:17;16.70;99.90
12520;DHT22;6325;49.540;8.364;2022-07-10T04:39:44;16.60;99.90
12520;DHT22;6325;49.540;8.364;2022-07-10T04:42:11;16.20;99.90
12520;DHT22;6325;49.540;8.364;2022-07-10T04:44:42;15.80;99.90
12520;DHT22;6325;49.540;8.364;2022-07-10T04:47:09;16.20;99.90
12520;DHT22;6325;49.540;8.364;2022-07-10T04:49:36;16.00;99.90
12520;DHT22;6325;49.540;8.364;2022-07-10T04:52:04;17.00;99.90
12520;DHT22;6325;49.540;8.364;2022-07-10T04:54:31;16.20;99.90
12520;DHT22;6325;49.540;8.364;2022-07-10T04:56:57;16.00;99.90
12520;DHT22;6325;49.540;8.364;2022-07-10T04:59:25;16.10;99.90
12520;DHT22;6325;49.540;8.364;2022-07-10T05:01:54;16.80;99.90
12520;DHT22;6325;49.540;8.364;2022-07-10T05:04:20;16.10;99.90
12520;DHT22;6325;49.540;8.364;2022-07-10T05:06:47;15.60;99.90
12520;DHT22;6325;49.540;8.364;2022-07-10T05:09:17;16.20;99.90
12520;DHT22;6325;49.540;8.364;2022-07-10T05:11:47;15.90;99.90
12520;DHT22;6325;49.540;8.364;2022-07-10T05:14:21;16.70;99.90
12520;DHT22;6325;49.540;8.364;2022-07-10T05:17:09;15.80;99.90
12520;DHT22;6325;49.540;8.364;2022-07-10T05:19:49;16.20;99.90
12520;DHT22;6325;49.540;8.364;2022-07-10T05:22:47;16.60;99.90
12520;DHT22;6325;49.540;8.364;2022-07-10T05:25:54;16.50;99.90
12520;DHT22;6325;49.540;8.364;2022-07-10T05:28:25;16.60;99.90
12520;DHT22;6325;49.540;8.364;2022-07-10T05:30:52;16.30;99.90
12520;DHT22;6325;49.540;8.364;2022-07-10T05:33:23;16.00;99.90
12520;DHT22;6325;49.540;8.364;2022-07-10T05:35:52;16.30;99.90
12520;DHT22;6325;49.540;8.364;2022-07-10T05:38:22;16.30;99.90
12520;DHT22;6325;49.540;8.364;2022-07-10T05:40:49;16.50;99.90
12520;DHT22;6325;49.540;8.364;2022-07-10T05:43:16;16.40;99.90
12520;DHT22;6325;49.540;8.364;2022-07-10T05:45:43;16.30;99.90
12520;DHT22;6325;49.540;8.364;2022-07-10T05:48:10;16.30;99.90
12520;DHT22;6325;49.540;8.364;2022-07-10T05:50:41;16.30;99.90
12520;DHT22;6325;49.540;8.364;2022-07-10T05:53:08;16.40;99.90
12520;DHT22;6325;49.540;8.364;2022-07-10T05:55:36;16.70;99.90
12520;DHT22;6325;49.540;8.364;2022-07-10T05:58:02;16.50;99.90
12520;DHT22;6325;49.540;8.364;2022-07-10T06:00:29;16.60;99.90
12520;DHT22;6325;49.540;8.364;2022-07-10T06:02:56;16.50;99.90
12520;DHT22;6325;49.540;8.364;2022-07-10T06:05:23;16.60;99.90
12520;DHT22;6325;49.540;8.364;2022-07-10T06:07:51;17.00;99.90
12520;DHT22;6325;49.540;8.364;2022-07-10T06:10:18;16.50;99.90
12520;DHT22;6325;49.540;8.364;2022-07-10T06:12:45;16.70;99.90
12520;DHT22;6325;49.540;8.364;2022-07-10T06:15:12;17.10;99.90
12520;DHT22;6325;49.540;8.364;2022-07-10T06:17:39;17.30;99.90
12520;DHT22;6325;49.540;8.364;2022-07-10T06:20:07;16.80;99.90
12520;DHT22;6325;49.540;8.364;2022-07-10T06:22:34;16.40;99.90
12520;DHT22;6325;49.540;8.364;2022-07-10T06:25:05;17.00;99.90
12520;DHT22;6325;49.540;8.364;2022-07-10T06:27:33;16.50;99.90
12520;DHT22;6325;49.540;8.364;2022-07-10T06:30:00;17.00;99.90
12520;DHT22;6325;49.540;8.364;2022-07-10T06:32:27;16.80;99.90
12520;DHT22;6325;49.540;8.364;2022-07-10T06:34:54;17.10;99.90
12520;DHT22;6325;49.540;8.364;2022-07-10T06:37:23;17.20;99.90
12520;DHT22;6325;49.540;8.364;2022-07-10T06:39:54;16.70;99.90
12520;DHT22;6325;49.540;8.364;2022-07-10T06:42:22;16.80;99.90
12520;DHT22;6325;49.540;8.364;2022-07-10T06:44:49;16.70;99.90
12520;DHT22;6325;49.540;8.364;2022-07-10T06:47:18;17.30;99.90
12520;DHT22;6325;49.540;8.364;2022-07-10T06:50:03;16.90;99.90
12520;DHT22;6325;49.540;8.364;2022-07-10T06:52:31;17.10;99.90
12520;DHT22;6325;49.540;8.364;2022-07-10T06:54:58;16.90;99.90
12520;DHT22;6325;49.540;8.364;2022-07-10T06:57:26;17.40;99.90
12520;DHT22;6325;49.540;8.364;2022-07-10T06:59:53;17.00;99.90
12520;DHT22;6325;49.540;8.364;2022-07-10T07:02:20;17.00;99.90
12520;DHT22;6325;49.540;8.364;2022-07-10T07:04:47;17.10;99.90
12520;DHT22;6325;49.540;8.364;2022-07-10T07:07:14;16.70;99.90
12520;DHT22;6325;49.540;8.364;2022-07-10T07:09:41;17.30;99.90
12520;DHT22;6325;49.540;8.364;2022-07-10T07:12:09;17.50;99.90
12520;DHT22;6325;49.540;8.364;2022-07-10T07:14:37;17.10;99.90
12520;DHT22;6325;49.540;8.364;2022-07-10T07:17:04;17.50;99.90
12520;DHT22;6325;49.540;8.364;2022-07-10T07:19:34;17.60;99.90
12520;DHT22;6325;49.540;8.364;2022-07-10T07:22:15;17.90;99.90
12520;DHT22;6325;49.540;8.364;2022-07-10T07:24:56;18.30;99.90
12520;DHT22;6325;49.540;8.364;2022-07-10T07:27:22;17.90;99.90
12520;DHT22;6325;49.540;8.364;2022-07-10T07:29:50;17.50;99.90
12520;DHT22;6325;49.540;8.364;2022-07-10T07:32:17;17.70;99.90
12520;DHT22;6325;49.540;8.364;2022-07-10T07:34:44;17.70;99.90
12520;DHT22;6325;49.540;8.364;2022-07-10T07:37:11;17.50;99.90
12520;DHT22;6325;49.540;8.364;2022-07-10T07:39:38;17.60;99.90
12520;DHT22;6325;49.540;8.364;2022-07-10T07:42:05;17.50;99.90
12520;DHT22;6325;49.540;8.364;2022-07-10T07:44:31;18.10;99.90
12520;DHT22;6325;49.540;8.364;2022-07-10T07:46:59;17.80;99.90
12520;DHT22;6325;49.540;8.364;2022-07-10T07:49:26;18.10;99.90
12520;DHT22;6325;49.540;8.364;2022-07-10T07:51:53;18.40;99.90
12520;DHT22;6325;49.540;8.364;2022-07-10T07:54:20;18.30;99.90
12520;DHT22;6325;49.540;8.364;2022-07-10T07:56:47;18.10;99.90
12520;DHT22;6325;49.540;8.364;2022-07-10T07:59:14;18.60;99.90
12520;DHT22;6325;49.540;8.364;2022-07-10T08:01:42;18.20;99.90
12520;DHT22;6325;49.540;8.364;2022-07-10T08:04:10;19.20;99.90
12520;DHT22;6325;49.540;8.364;2022-07-10T08:06:37;18.60;99.90
12520;DHT22;6325;49.540;8.364;2022-07-10T08:09:04;18.40;99.90
12520;DHT22;6325;49.540;8.364;2022-07-10T08:11:31;19.10;99.90
12520;DHT22;6325;49.540;8.364;2022-07-10T08:13:58;18.30;99.90
12520;DHT22;6325;49.540;8.364;2022-07-10T08:16:25;17.90;99.90
12520;DHT22;6325;49.540;8.364;2022-07-10T08:18:51;18.20;99.90
12520;DHT22;6325;49.540;8.364;2022-07-10T08:21:20;18.30;99.90
12520;DHT22;6325;49.540;8.364;2022-07-10T08:23:48;18.50;99.90
12520;DHT22;6325;49.540;8.364;2022-07-10T08:26:14;18.40;99.90
12520;DHT22;6325;49.540;8.364;2022-07-10T08:28:41;19.00;99.90
12520;DHT22;6325;49.540;8.364;2022-07-10T08:31:08;19.10;99.90
12520;DHT22;6325;49.540;8.364;2022-07-10T08:33:35;19.10;99.90
12520;DHT22;6325;49.540;8.364;2022-07-10T08:36:02;19.10;99.90
12520;DHT22;6325;49.540;8.364;2022-07-10T08:38:30;19.10;99.90
12520;DHT22;6325;49.540;8.364;2022-07-10T08:40:57;19.60;99.90
12520;DHT22;6325;49.540;8.364;2022-07-10T08:43:25;19.30;99.90
12520;DHT22;6325;49.540;8.364;2022-07-10T08:45:52;19.70;99.90
12520;DHT22;6325;49.540;8.364;2022-07-10T08:48:22;20.00;99.90
12520;DHT22;6325;49.540;8.364;2022-07-10T08:50:52;19.50;99.90
12520;DHT22;6325;49.540;8.364;2022-07-10T08:53:24;19.30;99.90
12520;DHT22;6325;49.540;8.364;2022-07-10T08:55:55;19.40;99.90
12520;DHT22;6325;49.540;8.364;2022-07-10T08:58:24;19.50;99.90
12520;DHT22;6325;49.540;8.364;2022-07-10T09:00:51;19.90;99.90
12520;DHT22;6325;49.540;8.364;2022-07-10T09:03:18;19.70;99.90
12520;DHT22;6325;49.540;8.364;2022-07-10T09:05:45;20.20;99.90
12520;DHT22;6325;49.540;8.364;2022-07-10T09:08:22;20.30;99.70
12520;DHT22;6325;49.540;8.364;2022-07-10T09:10:49;20.20;99.50
12520;DHT22;6325;49.540;8.364;2022-07-10T09:13:17;20.70;98.90
12520;DHT22;6325;49.540;8.364;2022-07-10T09:15:48;20.30;98.40
12520;DHT22;6325;49.540;8.364;2022-07-10T09:18:20;21.10;98.10
12520;DHT22;6325;49.540;8.364;2022-07-10T09:20:50;21.10;98.00
12520;DHT22;6325;49.540;8.364;2022-07-10T09:23:18;20.40;97.10
12520;DHT22;6325;49.540;8.364;2022-07-10T09:25:46;20.80;97.30
12520;DHT22;6325;49.540;8.364;2022-07-10T09:28:18;20.40;98.30
12520;DHT22;6325;49.540;8.364;2022-07-10T09:30:46;20.20;97.60
12520;DHT22;6325;49.540;8.364;2022-07-10T09:33:17;20.60;98.90
12520;DHT22;6325;49.540;8.364;2022-07-10T09:36:03;20.80;99.00
12520;DHT22;6325;49.540;8.364;2022-07-10T09:38:50;21.00;98.70
12520;DHT22;6325;49.540;8.364;2022-07-10T09:41:21;21.40;98.40
12520;DHT22;6325;49.540;8.364;2022-07-10T09:43:50;21.40;97.80
12520;DHT22;6325;49.540;8.364;2022-07-10T09:46:19;22.00;96.40
12520;DHT22;6325;49.540;8.364;2022-07-10T09:48:46;21.40;95.40
12520;DHT22;6325;49.540;8.364;2022-07-10T09:51:14;21.10;95.40
12520;DHT22;6325;49.540;8.364;2022-07-10T09:53:42;21.40;96.00
12520;DHT22;6325;49.540;8.364;2022-07-10T09:56:10;21.30;96.20
12520;DHT22;6325;49.540;8.364;2022-07-10T09:58:38;21.60;96.10
12520;DHT22;6325;49.540;8.364;2022-07-10T10:01:08;22.00;96.80
12520;DHT22;6325;49.540;8.364;2022-07-10T10:03:36;21.70;94.90
12520;DHT22;6325;49.540;8.364;2022-07-10T10:06:09;21.70;95.10
12520;DHT22;6325;49.540;8.364;2022-07-10T10:08:44;21.90;94.90
12520;DHT22;6325;49.540;8.364;2022-07-10T10:11:15;22.10;95.00
12520;DHT22;6325;49.540;8.364;2022-07-10T10:13:46;22.20;94.90
12520;DHT22;6325;49.540;8.364;2022-07-10T10:16:19;22.40;94.50
12520;DHT22;6325;49.540;8.364;2022-07-10T10:18:46;22.30;93.30
12520;DHT22;6325;49.540;8.364;2022-07-10T10:21:33;22.30;93.00
12520;DHT22;6325;49.540;8.364;2022-07-10T10:24:01;22.10;93.40
12520;DHT22;6325;49.540;8.364;2022-07-10T10:26:28;22.30;94.00
12520;DHT22;6325;49.540;8.364;2022-07-10T10:28:57;22.50;93.40
12520;DHT22;6325;49.540;8.364;2022-07-10T10:31:27;22.60;93.50
12520;DHT22;6325;49.540;8.364;2022-07-10T10:33:56;23.00;93.00
12520;DHT22;6325;49.540;8.364;2022-07-10T10:36:44;22.80;93.70
12520;DHT22;6325;49.540;8.364;2022-07-10T10:39:13;23.20;93.30
12520;DHT22;6325;49.540;8.364;2022-07-10T10:41:46;23.00;92.10
12520;DHT22;6325;49.540;8.364;2022-07-10T10:44:27;22.80;91.60
12520;DHT22;6325;49.540;8.364;2022-07-10T10:47:05;22.70;92.20
12520;DHT22;6325;49.540;8.364;2022-07-10T10:49:54;22.80;93.20
12520;DHT22;6325;49.540;8.364;2022-07-10T10:52:25;23.00;92.60
12520;DHT22;6325;49.540;8.364;2022-07-10T10:55:05;22.70;92.00
12520;DHT22;6325;49.540;8.364;2022-07-10T10:57:42;22.60;92.00
12520;DHT22;6325;49.540;8.364;2022-07-10T11:00:32;22.50;92.70
12520;DHT22;6325;49.540;8.364;2022-07-10T11:03:21;22.70;92.90
12520;DHT22;6325;49.540;8.364;2022-07-10T11:05:50;22.50;92.10
12520;DHT22;6325;49.540;8.364;2022-07-10T11:08:44;23.20;92.10
12520;DHT22;6325;49.540;8.364;2022-07-10T11:11:37;23.30;91.80
12520;DHT22;6325;49.540;8.364;2022-07-10T11:14:06;22.90;92.90
12520;DHT22;6325;49.540;8.364;2022-07-10T11:16:34;23.50;91.60
12520;DHT22;6325;49.540;8.364;2022-07-10T11:19:02;23.30;92.70
12520;DHT22;6325;49.540;8.364;2022-07-10T11:21:38;23.00;91.10
12520;DHT22;6325;49.540;8.364;2022-07-10T11:24:10;23.10;90.10
12520;DHT22;6325;49.540;8.364;2022-07-10T11:26:55;23.20;90.50
12520;DHT22;6325;49.540;8.364;2022-07-10T11:29:25;22.90;91.70
12520;DHT22;6325;49.540;8.364;2022-07-10T11:31:52;23.10;92.80
12520;DHT22;6325;49.540;8.364;2022-07-10T11:34:21;23.10;92.60
12520;DHT22;6325;49.540;8.364;2022-07-10T11:36:49;23.30;91.20
12520;DHT22;6325;49.540;8.364;2022-07-10T11:39:15;23.40;91.90
12520;DHT22;6325;49.540;8.364;2022-07-10T11:41:43;23.70;91.30
12520;DHT22;6325;49.540;8.364;2022-07-10T11:44:13;23.30;92.00
12520;DHT22;6325;49.540;8.364;2022-07-10T11:46:40;24.10;92.10
12520;DHT22;6325;49.540;8.364;2022-07-10T11:49:09;24.90;90.70
12520;DHT22;6325;49.540;8.364;2022-07-10T11:51:39;24.50;90.50
12520;DHT22;6325;49.540;8.364;2022-07-10T11:54:07;24.50;89.70
12520;DHT22;6325;49.540;8.364;2022-07-10T11:56:38;24.40;88.30
12520;DHT22;6325;49.540;8.364;2022-07-10T11:59:08;24.10;90.30
12520;DHT22;6325;49.540;8.364;2022-07-10T12:01:43;24.10;90.50
12520;DHT22;6325;49.540;8.364;2022-07-10T12:04:11;23.80;90.60
12520;DHT22;6325;49.540;8.364;2022-07-10T12:06:42;24.00;92.00
12520;DHT22;6325;49.540;8.364;2022-07-10T12:09:10;24.30;92.00
12520;DHT22;6325;49.540;8.364;2022-07-10T12:11:38;24.20;90.10
12520;DHT22;6325;49.540;8.364;2022-07-10T12:14:11;24.60;90.10
12520;DHT22;6325;49.540;8.364;2022-07-10T12:16:39;24.50;90.00
12520;DHT22;6325;49.540;8.364;2022-07-10T12:19:08;24.20;90.10
12520;DHT22;6325;49.540;8.364;2022-07-10T12:21:36;24.40;89.70
12520;DHT22;6325;49.540;8.364;2022-07-10T12:24:05;24.70;91.00
12520;DHT22;6325;49.540;8.364;2022-07-10T12:26:32;24.60;88.70
12520;DHT22;6325;49.540;8.364;2022-07-10T12:29:00;24.30;90.20
12520;DHT22;6325;49.540;8.364;2022-07-10T12:31:28;24.50;91.20
12520;DHT22;6325;49.540;8.364;2022-07-10T12:33:58;24.40;92.10
12520;DHT22;6325;49.540;8.364;2022-07-10T12:36:44;24.30;89.00
12520;DHT22;6325;49.540;8.364;2022-07-10T12:39:13;24.20;89.70
12520;DHT22;6325;49.540;8.364;2022-07-10T12:42:00;24.10;89.70
12520;DHT22;6325;49.540;8.364;2022-07-10T12:44:39;24.10;90.10
12520;DHT22;6325;49.540;8.364;2022-07-10T12:47:08;24.00;89.40
12520;DHT22;6325;49.540;8.364;2022-07-10T12:49:50;24.40;90.60
12520;DHT22;6325;49.540;8.364;2022-07-10T12:52:25;24.10;91.20
12520;DHT22;6325;49.540;8.364;2022-07-10T12:55:09;23.90;90.60
12520;DHT22;6325;49.540;8.364;2022-07-10T12:57:49;23.80;90.60
12520;DHT22;6325;49.540;8.364;2022-07-10T13:00:18;24.20;88.80
12520;DHT22;6325;49.540;8.364;2022-07-10T13:02:45;24.10;89.50
12520;DHT22;6325;49.540;8.364;2022-07-10T13:05:25;24.20;89.20
12520;DHT22;6325;49.540;8.364;2022-07-10T13:07:52;24.40;88.80
12520;DHT22;6325;49.540;8.364;2022-07-10T13:10:21;24.20;87.80
12520;DHT22;6325;49.540;8.364;2022-07-10T13:12:48;24.30;88.10
12520;DHT22;6325;49.540;8.364;2022-07-10T13:15:14;23.80;88.70
12520;DHT22;6325;49.540;8.364;2022-07-10T13:17:48;24.70;89.50
12520;DHT22;6325;49.540;8.364;2022-07-10T13:20:16;25.10;90.10
12520;DHT22;6325;49.540;8.364;2022-07-10T13:22:43;25.60;90.10
12520;DHT22;6325;49.540;8.364;2022-07-10T13:25:09;25.10;86.00
12520;DHT22;6325;49.540;8.364;2022-07-10T13:27:37;24.90;87.00
12520;DHT22;6325;49.540;8.364;2022-07-10T13:30:05;24.70;87.00
12520;DHT22;6325;49.540;8.364;2022-07-10T13:32:32;24.60;87.60
12520;DHT22;6325;49.540;8.364;2022-07-10T13:34:59;24.30;88.20
12520;DHT22;6325;49.540;8.364;2022-07-10T13:37:26;24.50;88.90
12520;DHT22;6325;49.540;8.364;2022-07-10T13:39:53;24.50;86.40
12520;DHT22;6325;49.540;8.364;2022-07-10T13:42:20;24.30;86.30
12520;DHT22;6325;49.540;8.364;2022-07-10T13:44:48;24.30;86.50
12520;DHT22;6325;49.540;8.364;2022-07-10T13:47:15;24.40;88.50
12520;DHT22;6325;49.540;8.364;2022-07-10T13:49:42;24.10;89.80
12520;DHT22;6325;49.540;8.364;2022-07-10T13:52:08;23.50;87.70
12520;DHT22;6325;49.540;8.364;2022-07-10T13:54:35;23.20;89.40
12520;DHT22;6325;49.540;8.364;2022-07-10T13:57:04;23.90;90.30
12520;DHT22;6325;49.540;8.364;2022-07-10T13:59:30;24.10;90.60
12520;DHT22;6325;49.540;8.364;2022-07-10T14:01:59;24.20;90.00
12520;DHT22;6325;49.540;8.364;2022-07-10T14:04:25;24.50;89.60
12520;DHT22;6325;49.540;8.364;2022-07-10T14:06:52;23.80;88.80
12520;DHT22;6325;49.540;8.364;2022-07-10T14:09:20;23.80;89.10
12520;DHT22;6325;49.540;8.364;2022-07-10T14:11:48;23.60;88.80
12520;DHT22;6325;49.540;8.364;2022-07-10T14:14:15;23.80;89.60
12520;DHT22;6325;49.540;8.364;2022-07-10T14:16:42;23.80;90.60
12520;DHT22;6325;49.540;8.364;2022-07-10T14:19:10;23.30;90.00
12520;DHT22;6325;49.540;8.364;2022-07-10T14:21:37;23.30;90.90
12520;DHT22;6325;49.540;8.364;2022-07-10T14:24:06;23.20;90.10
12520;DHT22;6325;49.540;8.364;2022-07-10T14:26:33;23.70;90.60
12520;DHT22;6325;49.540;8.364;2022-07-10T14:29:00;23.00;90.30
12520;DHT22;6325;49.540;8.364;2022-07-10T14:31:27;23.10;90.90
12520;DHT22;6325;49.540;8.364;2022-07-10T14:33:55;22.80;91.40
12520;DHT22;6325;49.540;8.364;2022-07-10T14:36:23;23.10;92.30
12520;DHT22;6325;49.540;8.364;2022-07-10T14:38:52;22.60;92.90
12520;DHT22;6325;49.540;8.364;2022-07-10T14:41:19;22.70;92.60
12520;DHT22;6325;49.540;8.364;2022-07-10T14:43:46;23.00;93.10
12520;DHT22;6325;49.540;8.364;2022-07-10T14:46:14;22.90;93.20
12520;DHT22;6325;49.540;8.364;2022-07-10T14:48:41;23.10;91.60
12520;DHT22;6325;49.540;8.364;2022-07-10T14:51:08;23.70;92.20
12520;DHT22;6325;49.540;8.364;2022-07-10T14:53:36;23.00;91.80
12520;DHT22;6325;49.540;8.364;2022-07-10T14:56:06;23.20;92.00
12520;DHT22;6325;49.540;8.364;2022-07-10T14:58:33;23.60;91.90
12520;DHT22;6325;49.540;8.364;2022-07-10T15:01:00;23.70;92.50
12520;DHT22;6325;49.540;8.364;2022-07-10T15:03:28;23.50;92.10
12520;DHT22;6325;49.540;8.364;2022-07-10T15:05:55;23.80;93.00
12520;DHT22;6325;49.540;8.364;2022-07-10T15:08:22;24.00;93.20
12520;DHT22;6325;49.540;8.364;2022-07-10T15:10:51;23.40;91.30
12520;DHT22;6325;49.540;8.364;2022-07-10T15:13:18;23.90;92.10
12520;DHT22;6325;49.540;8.364;2022-07-10T15:15:45;24.10;91.40
12520;DHT22;6325;49.540;8.364;2022-07-10T15:18:13;24.20;90.80
12520;DHT22;6325;49.540;8.364;2022-07-10T15:20:40;24.10;90.00
12520;DHT22;6325;49.540;8.364;2022-07-10T15:23:07;23.90;90.10
12520;DHT22;6325;49.540;8.364;2022-07-10T15:25:34;23.30;90.50
12520;DHT22;6325;49.540;8.364;2022-07-10T15:28:04;23.50;91.10
12520;DHT22;6325;49.540;8.364;2022-07-10T15:30:32;23.20;91.40
12520;DHT22;6325;49.540;8.364;2022-07-10T15:32:59;23.20;91.50
12520;DHT22;6325;49.540;8.364;2022-07-10T15:35:26;23.30;92.00
12520;DHT22;6325;49.540;8.364;2022-07-10T15:37:53;23.30;91.90
12520;DHT22;6325;49.540;8.364;2022-07-10T15:40:20;23.20;93.00
12520;DHT22;6325;49.540;8.364;2022-07-10T15:42:46;22.60;93.20
12520;DHT22;6325;49.540;8.364;2022-07-10T15:45:15;23.00;93.10
12520;DHT22;6325;49.540;8.364;2022-07-10T15:47:41;22.80;93.10
12520;DHT22;6325;49.540;8.364;2022-07-10T15:50:08;22.90;93.50
12520;DHT22;6325;49.540;8.364;2022-07-10T15:52:35;23.10;94.00
12520;DHT22;6325;49.540;8.364;2022-07-10T15:55:04;23.20;94.10
12520;DHT22;6325;49.540;8.364;2022-07-10T15:57:31;23.70;94.00